sensor_id;sensor_type;location;lat;lon;timestamp;P1;durP1;ratioP1;P2;durP2;ratioP2
75216;SDS011;63800;51.972;5.682;2022-09-28T00:01:24;16.33;;;10.07;;
75216;SDS011;63800;51.972;5.682;2022-09-28T00:03:52;15.63;;;8.98;;
75216;SDS011;63800;51.972;5.682;2022-09-28T00:06:22;13.82;;;9.73;;
75216;SDS011;63800;51.972;5.682;2022-09-28T00:08:48;13.18;;;8.75;;
75216;SDS011;63800;51.972;5.682;2022-09-28T00:11:14;15.20;;;8.75;;
75216;SDS011;63800;51.972;5.682;2022-09-28T00:13:41;14.02;;;8.25;;
75216;SDS011;63800;51.972;5.682;2022-09-28T00:16:09;14.90;;;8.80;;
75216;SDS011;63800;51.972;5.682;2022-09-28T00:18:38;15.63;;;8.70;;
75216;SDS011;63800;51.972;5.682;2022-09-28T00:21:04;14.68;;;8.88;;
75216;SDS011;63800;51.972;5.682;2022-09-28T00:23:33;13.63;;;7.93;;
75216;SDS011;63800;51.972;5.682;2022-09-28T00:26:02;14.88;;;8.10;;
75216;SDS011;63800;51.972;5.682;2022-09-28T00:28:29;12.75;;;8.30;;
75216;SDS011;63800;51.972;5.682;2022-09-28T00:30:55;12.68;;;7.68;;
75216;SDS011;63800;51.972;5.682;2022-09-28T00:33:21;12.05;;;7.47;;
75216;SDS011;63800;51.972;5.682;2022-09-28T00:35:53;11.57;;;7.10;;
75216;SDS011;63800;51.972;5.682;2022-09-28T00:40:45;12.52;;;6.85;;
75216;SDS011;63800;51.972;5.682;2022-09-28T00:43:17;11.30;;;7.10;;
75216;SDS011;63800;51.972;5.682;2022-09-28T00:45:44;11.57;;;7.07;;
75216;SDS011;63800;51.972;5.682;2022-09-28T00:48:13;12.20;;;7.00;;
75216;SDS011;63800;51.972;5.682;2022-09-28T00:50:38;12.65;;;6.22;;
75216;SDS011;63800;51.972;5.682;2022-09-28T00:53:10;10.73;;;7.10;;
75216;SDS011;63800;51.972;5.682;2022-09-28T00:58:12;13.13;;;7.00;;
75216;SDS011;63800;51.972;5.682;2022-09-28T01:00:41;11.32;;;7.25;;
75216;SDS011;63800;51.972;5.682;2022-09-28T01:03:07;12.63;;;7.10;;
75216;SDS011;63800;51.972;5.682;2022-09-28T01:05:33;14.05;;;7.50;;
75216;SDS011;63800;51.972;5.682;2022-09-28T01:08:00;11.80;;;6.85;;
75216;SDS011;63800;51.972;5.682;2022-09-28T01:10:27;11.10;;;6.63;;
75216;SDS011;63800;51.972;5.682;2022-09-28T01:12:55;12.98;;;6.75;;
75216;SDS011;63800;51.972;5.682;2022-09-28T01:15:21;13.95;;;7.68;;
75216;SDS011;63800;51.972;5.682;2022-09-28T01:17:55;9.55;;;6.22;;
75216;SDS011;63800;51.972;5.682;2022-09-28T01:20:46;12.35;;;7.15;;
75216;SDS011;63800;51.972;5.682;2022-09-28T01:28:48;13.65;;;6.90;;
75216;SDS011;63800;51.972;5.682;2022-09-28T01:31:18;10.95;;;7.30;;
75216;SDS011;63800;51.972;5.682;2022-09-28T01:33:54;10.23;;;6.00;;
75216;SDS011;63800;51.972;5.682;2022-09-28T01:36:43;11.82;;;7.38;;
75216;SDS011;63800;51.972;5.682;2022-09-28T01:39:13;12.30;;;6.88;;
75216;SDS011;63800;51.972;5.682;2022-09-28T01:41:44;11.52;;;7.40;;
75216;SDS011;63800;51.972;5.682;2022-09-28T01:44:12;10.98;;;7.00;;
75216;SDS011;63800;51.972;5.682;2022-09-28T01:46:41;12.75;;;6.63;;
75216;SDS011;63800;51.972;5.682;2022-09-28T01:51:41;10.55;;;6.80;;
75216;SDS011;63800;51.972;5.682;2022-09-28T01:54:20;10.85;;;6.85;;
75216;SDS011;63800;51.972;5.682;2022-09-28T01:56:52;10.73;;;6.80;;
75216;SDS011;63800;51.972;5.682;2022-09-28T01:59:23;10.80;;;6.35;;
75216;SDS011;63800;51.972;5.682;2022-09-28T02:01:52;11.25;;;6.38;;
75216;SDS011;63800;51.972;5.682;2022-09-28T02:04:22;11.32;;;6.97;;
75216;SDS011;63800;51.972;5.682;2022-09-28T02:07:00;13.50;;;7.40;;
75216;SDS011;63800;51.972;5.682;2022-09-28T02:09:33;13.25;;;7.57;;
75216;SDS011;63800;51.972;5.682;2022-09-28T02:12:14;12.83;;;8.27;;
75216;SDS011;63800;51.972;5.682;2022-09-28T02:14:44;15.20;;;8.40;;
75216;SDS011;63800;51.972;5.682;2022-09-28T02:17:13;15.48;;;8.30;;
75216;SDS011;63800;51.972;5.682;2022-09-28T02:19:40;13.68;;;8.38;;
75216;SDS011;63800;51.972;5.682;2022-09-28T02:25:20;14.32;;;8.15;;
75216;SDS011;63800;51.972;5.682;2022-09-28T02:28:00;17.88;;;8.15;;
75216;SDS011;63800;51.972;5.682;2022-09-28T02:30:28;15.93;;;8.73;;
75216;SDS011;63800;51.972;5.682;2022-09-28T02:32:58;17.20;;;9.38;;
75216;SDS011;63800;51.972;5.682;2022-09-28T02:35:29;12.75;;;8.57;;
75216;SDS011;63800;51.972;5.682;2022-09-28T02:37:54;13.50;;;8.43;;
75216;SDS011;63800;51.972;5.682;2022-09-28T02:40:22;14.43;;;8.25;;
75216;SDS011;63800;51.972;5.682;2022-09-28T02:42:55;15.02;;;8.50;;
75216;SDS011;63800;51.972;5.682;2022-09-28T02:48:22;14.48;;;8.90;;
75216;SDS011;63800;51.972;5.682;2022-09-28T02:53:57;14.23;;;7.93;;
75216;SDS011;63800;51.972;5.682;2022-09-28T02:59:51;11.70;;;7.13;;
75216;SDS011;63800;51.972;5.682;2022-09-28T03:02:22;13.55;;;7.50;;
75216;SDS011;63800;51.972;5.682;2022-09-28T03:05:15;12.38;;;6.95;;
75216;SDS011;63800;51.972;5.682;2022-09-28T03:13:19;9.85;;;6.70;;
75216;SDS011;63800;51.972;5.682;2022-09-28T03:15:45;10.38;;;6.22;;
75216;SDS011;63800;51.972;5.682;2022-09-28T03:18:10;9.07;;;5.75;;
75216;SDS011;63800;51.972;5.682;2022-09-28T03:20:36;10.43;;;6.50;;
75216;SDS011;63800;51.972;5.682;2022-09-28T03:23:01;11.70;;;6.63;;
75216;SDS011;63800;51.972;5.682;2022-09-28T03:25:27;9.18;;;5.85;;
75216;SDS011;63800;51.972;5.682;2022-09-28T03:27:52;9.27;;;6.05;;
75216;SDS011;63800;51.972;5.682;2022-09-28T03:30:18;10.73;;;6.10;;
75216;SDS011;63800;51.972;5.682;2022-09-28T03:32:43;9.10;;;5.88;;
75216;SDS011;63800;51.972;5.682;2022-09-28T03:35:09;9.60;;;5.63;;
75216;SDS011;63800;51.972;5.682;2022-09-28T03:37:35;8.32;;;5.93;;
75216;SDS011;63800;51.972;5.682;2022-09-28T03:40:00;9.20;;;5.55;;
75216;SDS011;63800;51.972;5.682;2022-09-28T03:42:26;7.68;;;5.35;;
75216;SDS011;63800;51.972;5.682;2022-09-28T03:44:52;8.27;;;5.80;;
75216;SDS011;63800;51.972;5.682;2022-09-28T03:47:17;10.50;;;5.68;;
75216;SDS011;63800;51.972;5.682;2022-09-28T03:49:43;7.50;;;5.05;;
75216;SDS011;63800;51.972;5.682;2022-09-28T03:52:09;8.13;;;5.40;;
75216;SDS011;63800;51.972;5.682;2022-09-28T03:54:35;9.02;;;5.00;;
75216;SDS011;63800;51.972;5.682;2022-09-28T03:57:01;7.13;;;4.80;;
75216;SDS011;63800;51.972;5.682;2022-09-28T03:59:27;6.00;;;4.63;;
75216;SDS011;63800;51.972;5.682;2022-09-28T04:01:52;5.68;;;4.35;;
75216;SDS011;63800;51.972;5.682;2022-09-28T04:04:18;7.53;;;4.80;;
75216;SDS011;63800;51.972;5.682;2022-09-28T04:06:43;7.93;;;4.72;;
75216;SDS011;63800;51.972;5.682;2022-09-28T04:09:08;7.45;;;4.47;;
75216;SDS011;63800;51.972;5.682;2022-09-28T04:11:34;5.15;;;4.47;;
75216;SDS011;63800;51.972;5.682;2022-09-28T04:13:59;9.95;;;4.18;;
75216;SDS011;63800;51.972;5.682;2022-09-28T04:16:25;6.50;;;4.22;;
75216;SDS011;63800;51.972;5.682;2022-09-28T04:18:51;7.75;;;4.60;;
75216;SDS011;63800;51.972;5.682;2022-09-28T04:21:17;5.82;;;5.20;;
75216;SDS011;63800;51.972;5.682;2022-09-28T04:23:43;8.13;;;5.10;;
75216;SDS011;63800;51.972;5.682;2022-09-28T04:26:17;6.80;;;4.43;;
75216;SDS011;63800;51.972;5.682;2022-09-28T04:28:44;6.47;;;4.93;;
75216;SDS011;63800;51.972;5.682;2022-09-28T04:31:29;7.63;;;4.78;;
75216;SDS011;63800;51.972;5.682;2022-09-28T04:33:55;6.90;;;4.65;;
75216;SDS011;63800;51.972;5.682;2022-09-28T04:36:21;5.85;;;4.47;;
75216;SDS011;63800;51.972;5.682;2022-09-28T04:38:49;7.35;;;4.68;;
75216;SDS011;63800;51.972;5.682;2022-09-28T04:41:16;7.53;;;4.82;;
75216;SDS011;63800;51.972;5.682;2022-09-28T04:43:41;7.20;;;5.10;;
75216;SDS011;63800;51.972;5.682;2022-09-28T04:46:08;8.10;;;4.80;;
75216;SDS011;63800;51.972;5.682;2022-09-28T04:48:36;6.88;;;5.13;;
75216;SDS011;63800;51.972;5.682;2022-09-28T04:51:01;6.65;;;4.90;;
75216;SDS011;63800;51.972;5.682;2022-09-28T04:53:27;5.47;;;4.72;;
75216;SDS011;63800;51.972;5.682;2022-09-28T04:55:57;9.27;;;5.32;;
75216;SDS011;63800;51.972;5.682;2022-09-28T04:58:24;6.97;;;5.10;;
75216;SDS011;63800;51.972;5.682;2022-09-28T05:00:51;7.50;;;5.07;;
75216;SDS011;63800;51.972;5.682;2022-09-28T05:03:18;8.30;;;5.25;;
75216;SDS011;63800;51.972;5.682;2022-09-28T05:05:44;8.13;;;4.97;;
75216;SDS011;63800;51.972;5.682;2022-09-28T05:08:10;6.00;;;4.93;;
75216;SDS011;63800;51.972;5.682;2022-09-28T05:10:35;6.40;;;5.00;;
75216;SDS011;63800;51.972;5.682;2022-09-28T05:13:04;7.75;;;4.90;;
75216;SDS011;63800;51.972;5.682;2022-09-28T05:15:33;7.38;;;4.65;;
75216;SDS011;63800;51.972;5.682;2022-09-28T05:18:02;8.90;;;5.05;;
75216;SDS011;63800;51.972;5.682;2022-09-28T05:20:28;6.47;;;5.35;;
75216;SDS011;63800;51.972;5.682;2022-09-28T05:22:54;6.25;;;4.70;;
75216;SDS011;63800;51.972;5.682;2022-09-28T05:25:20;7.65;;;5.32;;
75216;SDS011;63800;51.972;5.682;2022-09-28T05:27:46;6.70;;;5.55;;
75216;SDS011;63800;51.972;5.682;2022-09-28T05:30:12;7.95;;;5.38;;
75216;SDS011;63800;51.972;5.682;2022-09-28T05:32:41;7.43;;;5.82;;
75216;SDS011;63800;51.972;5.682;2022-09-28T05:35:08;7.53;;;4.90;;
75216;SDS011;63800;51.972;5.682;2022-09-28T05:37:35;6.47;;;5.15;;
75216;SDS011;63800;51.972;5.682;2022-09-28T05:40:04;5.43;;;4.30;;
75216;SDS011;63800;51.972;5.682;2022-09-28T05:42:30;5.65;;;4.07;;
75216;SDS011;63800;51.972;5.682;2022-09-28T05:44:55;5.15;;;3.88;;
75216;SDS011;63800;51.972;5.682;2022-09-28T05:47:24;6.30;;;4.28;;
75216;SDS011;63800;51.972;5.682;2022-09-28T05:49:53;7.20;;;4.53;;
75216;SDS011;63800;51.972;5.682;2022-09-28T05:52:19;5.18;;;4.50;;
75216;SDS011;63800;51.972;5.682;2022-09-28T05:54:45;6.70;;;4.40;;
75216;SDS011;63800;51.972;5.682;2022-09-28T05:57:10;8.27;;;4.90;;
75216;SDS011;63800;51.972;5.682;2022-09-28T05:59:36;6.40;;;4.50;;
75216;SDS011;63800;51.972;5.682;2022-09-28T06:02:03;6.63;;;4.75;;
75216;SDS011;63800;51.972;5.682;2022-09-28T06:04:29;6.97;;;4.90;;
75216;SDS011;63800;51.972;5.682;2022-09-28T06:06:55;6.72;;;4.88;;
75216;SDS011;63800;51.972;5.682;2022-09-28T06:09:22;6.03;;;4.40;;
75216;SDS011;63800;51.972;5.682;2022-09-28T06:11:48;7.10;;;4.63;;
75216;SDS011;63800;51.972;5.682;2022-09-28T06:14:14;6.68;;;4.72;;
75216;SDS011;63800;51.972;5.682;2022-09-28T06:16:40;7.07;;;4.57;;
75216;SDS011;63800;51.972;5.682;2022-09-28T06:19:06;7.55;;;4.75;;
75216;SDS011;63800;51.972;5.682;2022-09-28T06:21:33;5.47;;;4.50;;
75216;SDS011;63800;51.972;5.682;2022-09-28T06:24:12;6.82;;;4.90;;
75216;SDS011;63800;51.972;5.682;2022-09-28T06:27:03;7.15;;;4.75;;
75216;SDS011;63800;51.972;5.682;2022-09-28T06:29:31;8.48;;;5.32;;
75216;SDS011;63800;51.972;5.682;2022-09-28T06:31:58;7.47;;;5.03;;
75216;SDS011;63800;51.972;5.682;2022-09-28T06:34:30;6.10;;;4.65;;
75216;SDS011;63800;51.972;5.682;2022-09-28T06:37:07;6.03;;;4.05;;
75216;SDS011;63800;51.972;5.682;2022-09-28T06:39:53;5.32;;;4.03;;
75216;SDS011;63800;51.972;5.682;2022-09-28T06:42:32;4.50;;;3.38;;
75216;SDS011;63800;51.972;5.682;2022-09-28T06:45:07;5.20;;;3.92;;
75216;SDS011;63800;51.972;5.682;2022-09-28T06:47:54;5.65;;;3.75;;
75216;SDS011;63800;51.972;5.682;2022-09-28T06:50:30;5.30;;;3.65;;
75216;SDS011;63800;51.972;5.682;2022-09-28T06:53:13;6.65;;;3.88;;
75216;SDS011;63800;51.972;5.682;2022-09-28T06:55:44;4.15;;;3.28;;
75216;SDS011;63800;51.972;5.682;2022-09-28T06:58:13;4.00;;;2.72;;
75216;SDS011;63800;51.972;5.682;2022-09-28T07:00:45;5.00;;;3.38;;
75216;SDS011;63800;51.972;5.682;2022-09-28T07:03:17;4.65;;;2.92;;
75216;SDS011;63800;51.972;5.682;2022-09-28T07:05:52;5.45;;;3.03;;
75216;SDS011;63800;51.972;5.682;2022-09-28T07:08:26;2.78;;;2.10;;
75216;SDS011;63800;51.972;5.682;2022-09-28T07:10:55;3.50;;;2.38;;
75216;SDS011;63800;51.972;5.682;2022-09-28T07:13:24;3.25;;;2.40;;
75216;SDS011;63800;51.972;5.682;2022-09-28T07:16:00;3.55;;;2.50;;
75216;SDS011;63800;51.972;5.682;2022-09-28T07:18:29;3.67;;;2.47;;
75216;SDS011;63800;51.972;5.682;2022-09-28T07:21:02;3.80;;;2.58;;
75216;SDS011;63800;51.972;5.682;2022-09-28T07:23:40;3.42;;;2.25;;
75216;SDS011;63800;51.972;5.682;2022-09-28T07:26:12;4.15;;;2.13;;
75216;SDS011;63800;51.972;5.682;2022-09-28T07:28:40;2.78;;;2.10;;
75216;SDS011;63800;51.972;5.682;2022-09-28T07:31:12;3.72;;;1.80;;
75216;SDS011;63800;51.972;5.682;2022-09-28T07:33:38;3.53;;;1.98;;
75216;SDS011;63800;51.972;5.682;2022-09-28T07:36:09;2.70;;;2.00;;
75216;SDS011;63800;51.972;5.682;2022-09-28T07:38:36;2.60;;;2.05;;
75216;SDS011;63800;51.972;5.682;2022-09-28T07:41:13;3.25;;;2.00;;
75216;SDS011;63800;51.972;5.682;2022-09-28T07:43:56;3.20;;;1.98;;
75216;SDS011;63800;51.972;5.682;2022-09-28T07:46:33;4.78;;;2.75;;
75216;SDS011;63800;51.972;5.682;2022-09-28T07:49:25;3.13;;;1.90;;
75216;SDS011;63800;51.972;5.682;2022-09-28T07:52:16;4.22;;;2.22;;
75216;SDS011;63800;51.972;5.682;2022-09-28T07:54:49;4.15;;;2.20;;
75216;SDS011;63800;51.972;5.682;2022-09-28T07:57:28;3.35;;;1.95;;
75216;SDS011;63800;51.972;5.682;2022-09-28T07:59:59;4.32;;;2.33;;
75216;SDS011;63800;51.972;5.682;2022-09-28T08:02:43;6.38;;;2.40;;
75216;SDS011;63800;51.972;5.682;2022-09-28T08:05:27;4.82;;;2.10;;
75216;SDS011;63800;51.972;5.682;2022-09-28T08:08:13;6.95;;;2.53;;
75216;SDS011;63800;51.972;5.682;2022-09-28T08:10:43;3.70;;;2.22;;
75216;SDS011;63800;51.972;5.682;2022-09-28T08:13:16;2.67;;;2.13;;
75216;SDS011;63800;51.972;5.682;2022-09-28T08:15:59;3.10;;;2.25;;
75216;SDS011;63800;51.972;5.682;2022-09-28T08:18:42;5.68;;;2.42;;
75216;SDS011;63800;51.972;5.682;2022-09-28T08:25:07;5.20;;;2.75;;
75216;SDS011;63800;51.972;5.682;2022-09-28T08:27:53;3.35;;;2.42;;
75216;SDS011;63800;51.972;5.682;2022-09-28T08:30:59;4.38;;;2.65;;
75216;SDS011;63800;51.972;5.682;2022-09-28T08:33:38;4.60;;;2.72;;
75216;SDS011;63800;51.972;5.682;2022-09-28T08:36:24;4.63;;;2.78;;
75216;SDS011;63800;51.972;5.682;2022-09-28T08:39:21;4.20;;;2.60;;
75216;SDS011;63800;51.972;5.682;2022-09-28T08:44:49;3.75;;;2.90;;
75216;SDS011;63800;51.972;5.682;2022-09-28T08:47:33;4.07;;;2.85;;
75216;SDS011;63800;51.972;5.682;2022-09-28T08:50:34;3.45;;;2.28;;
75216;SDS011;63800;51.972;5.682;2022-09-28T09:02:48;4.88;;;2.00;;
75216;SDS011;63800;51.972;5.682;2022-09-28T09:05:26;2.78;;;1.95;;
75216;SDS011;63800;51.972;5.682;2022-09-28T09:11:49;3.60;;;1.40;;
75216;SDS011;63800;51.972;5.682;2022-09-28T09:21:30;1.92;;;1.25;;
75216;SDS011;63800;51.972;5.682;2022-09-28T09:36:30;2.05;;;1.10;;
75216;SDS011;63800;51.972;5.682;2022-09-28T09:55:58;3.33;;;0.80;;
75216;SDS011;63800;51.972;5.682;2022-09-28T10:01:09;1.25;;;0.90;;
75216;SDS011;63800;51.972;5.682;2022-09-28T10:07:22;1.80;;;0.80;;
75216;SDS011;63800;51.972;5.682;2022-09-28T10:10:19;1.02;;;0.93;;
75216;SDS011;63800;51.972;5.682;2022-09-28T10:13:00;1.75;;;0.90;;
75216;SDS011;63800;51.972;5.682;2022-09-28T10:18:19;0.70;;;0.70;;
75216;SDS011;63800;51.972;5.682;2022-09-28T10:20:51;1.02;;;1.00;;
75216;SDS011;63800;51.972;5.682;2022-09-28T10:23:49;1.00;;;0.90;;
75216;SDS011;63800;51.972;5.682;2022-09-28T10:26:40;3.63;;;0.80;;
75216;SDS011;63800;51.972;5.682;2022-09-28T10:29:42;0.95;;;0.85;;
75216;SDS011;63800;51.972;5.682;2022-09-28T10:38:52;3.72;;;1.15;;
75216;SDS011;63800;51.972;5.682;2022-09-28T10:47:43;0.68;;;0.68;;
75216;SDS011;63800;51.972;5.682;2022-09-28T10:50:27;1.08;;;0.80;;
75216;SDS011;63800;51.972;5.682;2022-09-28T10:56:22;0.70;;;0.70;;
75216;SDS011;63800;51.972;5.682;2022-09-28T11:02:30;0.57;;;0.50;;
75216;SDS011;63800;51.972;5.682;2022-09-28T11:05:26;2.38;;;1.55;;
75216;SDS011;63800;51.972;5.682;2022-09-28T11:07:56;1.52;;;0.85;;
75216;SDS011;63800;51.972;5.682;2022-09-28T11:10:27;0.82;;;0.80;;
75216;SDS011;63800;51.972;5.682;2022-09-28T11:13:03;0.60;;;0.60;;
75216;SDS011;63800;51.972;5.682;2022-09-28T11:15:50;1.50;;;0.60;;
75216;SDS011;63800;51.972;5.682;2022-09-28T11:18:39;2.40;;;0.73;;
75216;SDS011;63800;51.972;5.682;2022-09-28T11:21:26;0.60;;;0.60;;
75216;SDS011;63800;51.972;5.682;2022-09-28T11:27:58;0.60;;;0.60;;
75216;SDS011;63800;51.972;5.682;2022-09-28T11:34:02;1.38;;;0.60;;
75216;SDS011;63800;51.972;5.682;2022-09-28T11:43:01;0.60;;;0.60;;
75216;SDS011;63800;51.972;5.682;2022-09-28T11:48:12;0.50;;;0.50;;
75216;SDS011;63800;51.972;5.682;2022-09-28T11:53:19;0.80;;;0.50;;
75216;SDS011;63800;51.972;5.682;2022-09-28T11:56:04;0.68;;;0.63;;
75216;SDS011;63800;51.972;5.682;2022-09-28T11:58:56;0.52;;;0.50;;
75216;SDS011;63800;51.972;5.682;2022-09-28T12:01:26;1.27;;;0.63;;
75216;SDS011;63800;51.972;5.682;2022-09-28T12:04:06;1.27;;;0.70;;
75216;SDS011;63800;51.972;5.682;2022-09-28T12:06:38;0.88;;;0.80;;
75216;SDS011;63800;51.972;5.682;2022-09-28T12:09:14;0.68;;;0.60;;
75216;SDS011;63800;51.972;5.682;2022-09-28T12:11:47;0.85;;;0.70;;
75216;SDS011;63800;51.972;5.682;2022-09-28T12:14:27;0.63;;;0.63;;
75216;SDS011;63800;51.972;5.682;2022-09-28T12:19:37;0.80;;;0.70;;
75216;SDS011;63800;51.972;5.682;2022-09-28T12:22:14;0.60;;;0.60;;
75216;SDS011;63800;51.972;5.682;2022-09-28T12:24:45;1.35;;;0.50;;
75216;SDS011;63800;51.972;5.682;2022-09-28T12:27:16;0.90;;;0.63;;
75216;SDS011;63800;51.972;5.682;2022-09-28T12:29:53;1.48;;;0.60;;
75216;SDS011;63800;51.972;5.682;2022-09-28T12:32:40;0.90;;;0.60;;
75216;SDS011;63800;51.972;5.682;2022-09-28T12:35:11;1.88;;;0.60;;
75216;SDS011;63800;51.972;5.682;2022-09-28T12:40:35;1.30;;;0.50;;
75216;SDS011;63800;51.972;5.682;2022-09-28T12:51:21;1.25;;;0.70;;
75216;SDS011;63800;51.972;5.682;2022-09-28T12:59:31;1.25;;;0.80;;
75216;SDS011;63800;51.972;5.682;2022-09-28T13:10:34;4.27;;;0.83;;
75216;SDS011;63800;51.972;5.682;2022-09-28T13:18:43;2.78;;;1.17;;
75216;SDS011;63800;51.972;5.682;2022-09-28T13:24:08;1.45;;;0.93;;
75216;SDS011;63800;51.972;5.682;2022-09-28T13:26:40;2.00;;;1.10;;
75216;SDS011;63800;51.972;5.682;2022-09-28T13:29:12;1.58;;;0.90;;
75216;SDS011;63800;51.972;5.682;2022-09-28T13:31:48;3.08;;;0.90;;
75216;SDS011;63800;51.972;5.682;2022-09-28T13:34:23;0.95;;;0.95;;
75216;SDS011;63800;51.972;5.682;2022-09-28T13:42:39;1.98;;;0.93;;
75216;SDS011;63800;51.972;5.682;2022-09-28T13:47:48;2.08;;;0.90;;
75216;SDS011;63800;51.972;5.682;2022-09-28T13:53:24;1.73;;;0.90;;
75216;SDS011;63800;51.972;5.682;2022-09-28T13:56:02;2.00;;;1.10;;
75216;SDS011;63800;51.972;5.682;2022-09-28T13:58:49;1.20;;;1.10;;
75216;SDS011;63800;51.972;5.682;2022-09-28T14:01:22;1.00;;;1.00;;
75216;SDS011;63800;51.972;5.682;2022-09-28T14:04:10;2.25;;;0.90;;
75216;SDS011;63800;51.972;5.682;2022-09-28T14:06:53;1.42;;;0.98;;
75216;SDS011;63800;51.972;5.682;2022-09-28T14:09:43;1.65;;;1.20;;
75216;SDS011;63800;51.972;5.682;2022-09-28T14:14:58;2.38;;;1.17;;
75216;SDS011;63800;51.972;5.682;2022-09-28T14:25:31;2.35;;;1.60;;
75216;SDS011;63800;51.972;5.682;2022-09-28T14:30:55;1.30;;;1.20;;
75216;SDS011;63800;51.972;5.682;2022-09-28T14:36:18;2.47;;;1.00;;
75216;SDS011;63800;51.972;5.682;2022-09-28T14:39:27;1.95;;;1.02;;
75216;SDS011;63800;51.972;5.682;2022-09-28T14:42:15;1.23;;;0.93;;
75216;SDS011;63800;51.972;5.682;2022-09-28T14:50:19;3.58;;;1.95;;
75216;SDS011;63800;51.972;5.682;2022-09-28T14:52:51;2.65;;;2.03;;
75216;SDS011;63800;51.972;5.682;2022-09-28T14:55:30;2.10;;;1.50;;
75216;SDS011;63800;51.972;5.682;2022-09-28T14:57:59;1.55;;;1.10;;
75216;SDS011;63800;51.972;5.682;2022-09-28T15:00:28;3.38;;;1.90;;
75216;SDS011;63800;51.972;5.682;2022-09-28T15:02:59;1.55;;;1.20;;
75216;SDS011;63800;51.972;5.682;2022-09-28T15:08:33;4.70;;;2.10;;
75216;SDS011;63800;51.972;5.682;2022-09-28T15:10:59;2.33;;;2.03;;
75216;SDS011;63800;51.972;5.682;2022-09-28T15:13:26;4.43;;;2.20;;
75216;SDS011;63800;51.972;5.682;2022-09-28T15:15:53;4.38;;;2.42;;
75216;SDS011;63800;51.972;5.682;2022-09-28T15:18:38;4.32;;;2.38;;
75216;SDS011;63800;51.972;5.682;2022-09-28T15:21:38;4.07;;;2.65;;
75216;SDS011;63800;51.972;5.682;2022-09-28T15:26:58;2.95;;;1.80;;
75216;SDS011;63800;51.972;5.682;2022-09-28T15:29:28;4.53;;;2.17;;
75216;SDS011;63800;51.972;5.682;2022-09-28T15:31:57;4.70;;;2.60;;
75216;SDS011;63800;51.972;5.682;2022-09-28T15:34:32;4.18;;;2.00;;
75216;SDS011;63800;51.972;5.682;2022-09-28T15:37:28;2.70;;;1.50;;
75216;SDS011;63800;51.972;5.682;2022-09-28T15:39:59;1.63;;;1.50;;
75216;SDS011;63800;51.972;5.682;2022-09-28T15:42:26;2.67;;;1.58;;
75216;SDS011;63800;51.972;5.682;2022-09-28T15:45:02;1.70;;;1.60;;
75216;SDS011;63800;51.972;5.682;2022-09-28T15:47:37;1.70;;;1.20;;
75216;SDS011;63800;51.972;5.682;2022-09-28T15:52:34;4.45;;;2.25;;
75216;SDS011;63800;51.972;5.682;2022-09-28T15:55:21;4.53;;;3.15;;
75216;SDS011;63800;51.972;5.682;2022-09-28T15:57:48;6.07;;;3.95;;
75216;SDS011;63800;51.972;5.682;2022-09-28T16:02:55;3.78;;;2.20;;
75216;SDS011;63800;51.972;5.682;2022-09-28T16:05:29;2.97;;;1.90;;
75216;SDS011;63800;51.972;5.682;2022-09-28T16:08:35;3.60;;;1.90;;
75216;SDS011;63800;51.972;5.682;2022-09-28T16:10:54;3.42;;;1.95;;
75216;SDS011;63800;51.972;5.682;2022-09-28T16:13:31;3.50;;;1.70;;
75216;SDS011;63800;51.972;5.682;2022-09-28T16:15:58;2.25;;;1.80;;
75216;SDS011;63800;51.972;5.682;2022-09-28T16:18:25;2.60;;;1.63;;
75216;SDS011;63800;51.972;5.682;2022-09-28T16:20:53;3.00;;;2.47;;
75216;SDS011;63800;51.972;5.682;2022-09-28T16:23:22;5.45;;;2.80;;
75216;SDS011;63800;51.972;5.682;2022-09-28T16:28:26;6.28;;;3.50;;
75216;SDS011;63800;51.972;5.682;2022-09-28T16:33:39;9.50;;;4.40;;
75216;SDS011;63800;51.972;5.682;2022-09-28T16:36:18;3.22;;;2.20;;
75216;SDS011;63800;51.972;5.682;2022-09-28T16:38:45;3.28;;;2.00;;
75216;SDS011;63800;51.972;5.682;2022-09-28T16:41:11;2.42;;;1.77;;
75216;SDS011;63800;51.972;5.682;2022-09-28T16:43:38;2.50;;;1.88;;
75216;SDS011;63800;51.972;5.682;2022-09-28T16:46:09;3.70;;;2.30;;
75216;SDS011;63800;51.972;5.682;2022-09-28T16:48:39;4.55;;;2.55;;
75216;SDS011;63800;51.972;5.682;2022-09-28T16:51:19;4.78;;;2.75;;
75216;SDS011;63800;51.972;5.682;2022-09-28T16:53:45;5.28;;;2.63;;
75216;SDS011;63800;51.972;5.682;2022-09-28T16:56:30;4.30;;;2.47;;
75216;SDS011;63800;51.972;5.682;2022-09-28T16:58:57;7.03;;;1.88;;
75216;SDS011;63800;51.972;5.682;2022-09-28T17:01:23;1.83;;;1.48;;
75216;SDS011;63800;51.972;5.682;2022-09-28T17:03:48;2.30;;;2.03;;
75216;SDS011;63800;51.972;5.682;2022-09-28T17:06:15;3.15;;;2.58;;
75216;SDS011;63800;51.972;5.682;2022-09-28T17:08:42;4.03;;;2.30;;
75216;SDS011;63800;51.972;5.682;2022-09-28T17:11:15;3.33;;;2.75;;
75216;SDS011;63800;51.972;5.682;2022-09-28T17:13:42;5.10;;;3.10;;
75216;SDS011;63800;51.972;5.682;2022-09-28T17:18:36;4.50;;;2.72;;
75216;SDS011;63800;51.972;5.682;2022-09-28T17:21:04;2.90;;;2.63;;
75216;SDS011;63800;51.972;5.682;2022-09-28T17:23:37;2.55;;;2.35;;
75216;SDS011;63800;51.972;5.682;2022-09-28T17:26:03;3.25;;;2.38;;
75216;SDS011;63800;51.972;5.682;2022-09-28T17:28:33;3.55;;;2.28;;
75216;SDS011;63800;51.972;5.682;2022-09-28T17:31:00;2.90;;;2.20;;
75216;SDS011;63800;51.972;5.682;2022-09-28T17:33:29;2.65;;;2.25;;
75216;SDS011;63800;51.972;5.682;2022-09-28T17:35:56;3.65;;;2.58;;
75216;SDS011;63800;51.972;5.682;2022-09-28T17:38:25;2.92;;;2.47;;
75216;SDS011;63800;51.972;5.682;2022-09-28T17:40:50;3.70;;;3.20;;
75216;SDS011;63800;51.972;5.682;2022-09-28T17:43:16;3.92;;;3.33;;
75216;SDS011;63800;51.972;5.682;2022-09-28T17:45:41;4.75;;;3.67;;
75216;SDS011;63800;51.972;5.682;2022-09-28T17:48:14;5.15;;;3.33;;
75216;SDS011;63800;51.972;5.682;2022-09-28T17:50:41;3.75;;;3.35;;
75216;SDS011;63800;51.972;5.682;2022-09-28T17:53:07;5.85;;;3.92;;
75216;SDS011;63800;51.972;5.682;2022-09-28T17:55:33;11.13;;;6.30;;
75216;SDS011;63800;51.972;5.682;2022-09-28T17:58:01;8.65;;;6.05;;
75216;SDS011;63800;51.972;5.682;2022-09-28T18:00:52;14.00;;;8.82;;
75216;SDS011;63800;51.972;5.682;2022-09-28T18:03:19;10.20;;;6.97;;
75216;SDS011;63800;51.972;5.682;2022-09-28T18:05:46;8.82;;;6.43;;
75216;SDS011;63800;51.972;5.682;2022-09-28T18:08:16;9.23;;;6.22;;
75216;SDS011;63800;51.972;5.682;2022-09-28T18:10:43;7.13;;;5.75;;
75216;SDS011;63800;51.972;5.682;2022-09-28T18:13:10;8.73;;;5.53;;
75216;SDS011;63800;51.972;5.682;2022-09-28T18:15:36;5.47;;;4.60;;
75216;SDS011;63800;51.972;5.682;2022-09-28T18:18:02;4.40;;;4.00;;
75216;SDS011;63800;51.972;5.682;2022-09-28T18:20:28;4.75;;;4.05;;
75216;SDS011;63800;51.972;5.682;2022-09-28T18:22:54;5.15;;;3.63;;
75216;SDS011;63800;51.972;5.682;2022-09-28T18:25:20;7.85;;;5.32;;
75216;SDS011;63800;51.972;5.682;2022-09-28T18:27:46;11.93;;;6.30;;
75216;SDS011;63800;51.972;5.682;2022-09-28T18:30:11;10.40;;;6.53;;
75216;SDS011;63800;51.972;5.682;2022-09-28T18:32:36;8.35;;;5.75;;
75216;SDS011;63800;51.972;5.682;2022-09-28T18:35:03;9.43;;;6.07;;
75216;SDS011;63800;51.972;5.682;2022-09-28T18:37:29;8.93;;;6.18;;
75216;SDS011;63800;51.972;5.682;2022-09-28T18:39:55;8.18;;;5.63;;
75216;SDS011;63800;51.972;5.682;2022-09-28T18:42:21;8.88;;;6.20;;
75216;SDS011;63800;51.972;5.682;2022-09-28T18:44:47;8.20;;;5.65;;
75216;SDS011;63800;51.972;5.682;2022-09-28T18:47:12;8.68;;;5.90;;
75216;SDS011;63800;51.972;5.682;2022-09-28T18:49:39;11.13;;;5.43;;
75216;SDS011;63800;51.972;5.682;2022-09-28T18:52:05;8.25;;;4.70;;
75216;SDS011;63800;51.972;5.682;2022-09-28T18:54:31;6.60;;;4.85;;
75216;SDS011;63800;51.972;5.682;2022-09-28T18:56:57;9.27;;;4.75;;
75216;SDS011;63800;51.972;5.682;2022-09-28T18:59:23;6.70;;;5.30;;